Time;durP1;ratioP1;P1;durP2;ratioP2;P2;SDS_P1;SDS_P2;PMS_P1;PMS_P2;Temp;Humidity;BMP_temperature;BMP_pressure;BME280_temperature;BME280_humidity;BME280_pressure;Samples;Min_cycle;Max_cycle;Signal;HPM_P1;HPM_P2
2023/09/13 00:02:19;;;;;;;4.10;2.88;;;;;;;18.00;63.93;64867.28;5049592;28;20262;-58
2023/09/13 00:04:44;;;;;;;5.82;3.05;;;;;;;18.01;63.68;64868.41;5031733;28;20285;-52
2023/09/13 00:07:10;;;;;;;5.88;2.58;;;;;;;17.93;64.49;64859.59;5049386;28;20558;-51
2023/09/13 00:09:37;;;;;;;5.18;2.83;;;;;;;17.97;64.87;64860.88;5050125;28;20701;-52
2023/09/13 00:12:03;;;;;;;4.25;2.28;;;;;;;17.89;65.57;64855.19;5053251;28;20241;-52
2023/09/13 00:14:28;;;;;;;4.93;3.08;;;;;;;17.84;65.85;64846.53;5034808;28;20271;-52
2023/09/13 00:16:55;;;;;;;6.78;3.13;;;;;;;17.76;66.76;64838.28;5034828;28;20635;-50
2023/09/13 00:19:20;;;;;;;5.20;2.53;;;;;;;17.69;67.70;64830.56;5053046;28;20312;-51
2023/09/13 00:21:46;;;;;;;4.80;2.47;;;;;;;17.52;68.85;64814.38;5052962;28;20695;-51
2023/09/13 00:24:11;;;;;;;4.93;2.70;;;;;;;17.46;69.70;64805.19;5052630;28;20217;-50
2023/09/13 00:26:37;;;;;;;5.13;2.42;;;;;;;17.43;70.30;64799.34;5052833;28;20597;-52
2023/09/13 00:29:02;;;;;;;6.18;2.65;;;;;;;17.28;71.06;64785.91;5052776;28;20205;-52
2023/09/13 00:31:28;;;;;;;4.50;2.85;;;;;;;17.21;71.64;64780.22;5052613;28;20265;-52
2023/09/13 00:33:53;;;;;;;6.70;3.08;;;;;;;17.11;72.40;64767.19;5052618;28;20243;-51
2023/09/13 00:36:19;;;;;;;3.85;3.00;;;;;;;17.08;72.42;64765.88;5052575;28;20212;-57
2023/09/13 00:38:44;;;;;;;3.78;3.08;;;;;;;17.09;72.38;64762.44;5052310;28;20213;-51
2023/09/13 00:41:10;;;;;;;7.55;3.15;;;;;;;17.02;72.49;64756.72;5052600;28;20277;-52
2023/09/13 00:43:36;;;;;;;5.18;2.63;;;;;;;17.09;71.78;64764.44;5052406;28;20213;-51
2023/09/13 00:46:02;;;;;;;4.38;2.95;;;;;;;16.92;72.16;64745.72;5052216;28;20198;-51
2023/09/13 00:48:29;;;;;;;6.13;2.72;;;;;;;16.95;72.00;64749.03;5052167;28;20204;-50
2023/09/13 00:50:56;;;;;;;7.72;2.58;;;;;;;16.96;72.14;64747.56;5052230;28;20209;-52
2023/09/13 00:53:23;;;;;;;7.03;3.15;;;;;;;16.92;72.41;64748.25;5052430;28;20202;-51
2023/09/13 00:55:51;;;;;;;3.85;2.30;;;;;;;16.94;72.62;64750.47;5052142;28;20220;-51
2023/09/13 00:58:18;;;;;;;3.33;2.65;;;;;;;16.90;72.91;64746.59;5052214;28;20284;-52
2023/09/13 01:00:45;;;;;;;6.65;2.58;;;;;;;16.95;72.50;64749.03;5051992;28;20652;-51
2023/09/13 01:03:11;;;;;;;5.07;2.67;;;;;;;16.85;73.13;64738.53;5052020;28;20293;-51
2023/09/13 01:05:37;;;;;;;3.28;2.47;;;;;;;16.81;73.65;64736.16;5052009;28;20225;-51
2023/09/13 01:08:21;;;;;;;5.18;2.83;;;;;;;16.76;74.32;64731.75;5051821;28;20194;-51
2023/09/13 01:10:47;;;;;;;4.93;2.83;;;;;;;16.62;75.21;64713.22;5051819;28;20213;-51
2023/09/13 01:13:14;;;;;;;3.75;2.78;;;;;;;16.62;75.67;64713.75;5051755;28;20394;-51
2023/09/13 01:16:14;;;;;;;8.75;3.20;;;;;;;16.59;75.67;64710.47;5051900;28;20613;-52
2023/09/13 01:19:17;;;;;;;6.97;3.10;;;;;;;16.60;75.95;64711.03;5019448;28;20221;-51
2023/09/13 01:21:58;;;;;;;5.47;2.85;;;;;;;16.59;75.63;64712.47;5021306;28;20366;-51
2023/09/13 01:24:43;;;;;;;8.02;3.30;;;;;;;16.56;75.48;64712.25;5051634;28;20173;-51
2023/09/13 01:27:30;;;;;;;3.42;2.53;;;;;;;16.60;74.82;64714.09;5051788;28;20224;-53
2023/09/13 01:29:58;;;;;;;3.65;3.28;;;;;;;16.61;73.58;64712.66;5051687;28;20307;-54
2023/09/13 01:32:23;;;;;;;4.07;2.60;;;;;;;16.70;72.42;64722.56;5051879;28;20703;-52
2023/09/13 01:34:49;;;;;;;4.28;2.60;;;;;;;16.77;72.17;64730.28;5051420;28;20189;-53
2023/09/13 01:37:14;;;;;;;5.57;2.65;;;;;;;16.84;71.89;64739.44;5051454;28;20213;-53
2023/09/13 01:39:40;;;;;;;3.95;2.65;;;;;;;16.88;71.70;64741.31;5051495;28;20631;-52
2023/09/13 01:42:10;;;;;;;4.68;2.95;;;;;;;16.83;72.81;64733.78;5051838;28;20213;-54
2023/09/13 01:44:40;;;;;;;4.80;2.70;;;;;;;16.95;71.69;64751.56;5051147;28;20250;-53
2023/09/13 01:47:08;;;;;;;5.03;3.03;;;;;;;16.89;72.23;64742.94;5051717;28;20710;-54
2023/09/13 01:49:36;;;;;;;6.47;2.70;;;;;;;16.74;73.20;64729.00;5051434;28;20268;-52
2023/09/13 01:52:05;;;;;;;3.28;2.40;;;;;;;16.83;74.54;64738.34;5033403;28;20221;-52
2023/09/13 01:54:35;;;;;;;3.85;2.85;;;;;;;16.73;74.30;64725.34;5051191;28;20693;-53
2023/09/13 01:57:02;;;;;;;4.78;2.80;;;;;;;16.99;73.66;64753.44;5051083;28;20759;-53
2023/09/13 01:59:28;;;;;;;4.05;2.47;;;;;;;16.98;74.43;64752.31;5050985;28;20706;-53
2023/09/13 02:01:54;;;;;;;5.68;2.97;;;;;;;17.00;74.41;64757.06;5051384;28;20246;-53
2023/09/13 02:04:20;;;;;;;2.83;2.55;;;;;;;16.88;74.95;64744.41;5050925;28;20601;-53
2023/09/13 02:06:48;;;;;;;3.45;2.80;;;;;;;17.07;73.95;64762.25;5051419;28;20237;-52
2023/09/13 02:09:13;;;;;;;5.18;2.97;;;;;;;17.02;74.60;64756.72;5050898;28;20221;-53
2023/09/13 02:11:38;;;;;;;4.10;3.10;;;;;;;16.75;76.07;64727.53;5051196;28;20209;-53
2023/09/13 02:14:04;;;;;;;6.13;2.80;;;;;;;16.83;75.59;64735.81;5050838;28;20201;-53
2023/09/13 02:16:29;;;;;;;6.07;3.38;;;;;;;16.71;76.72;64726.22;5050866;28;20271;-53
2023/09/13 02:18:55;;;;;;;3.20;2.88;;;;;;;16.67;76.42;64719.28;5050983;28;20215;-53
2023/09/13 02:21:21;;;;;;;2.33;2.13;;;;;;;16.59;77.18;64710.47;5050675;28;20296;-52
2023/09/13 02:23:46;;;;;;;6.57;3.05;;;;;;;16.67;76.93;64716.72;5050772;28;20574;-53
2023/09/13 02:26:23;;;;;;;3.80;2.65;;;;;;;16.60;76.69;64711.03;5050488;28;20217;-52
2023/09/13 02:28:49;;;;;;;4.15;2.97;;;;;;;16.38;78.65;64689.31;5050603;28;20233;-53
2023/09/13 02:31:22;;;;;;;3.40;2.80;;;;;;;16.49;77.72;64699.47;5050785;28;20316;-52
2023/09/13 02:33:47;;;;;;;6.68;3.00;;;;;;;16.54;78.35;64704.94;5049215;28;20199;-51
2023/09/13 02:36:13;;;;;;;3.88;2.97;;;;;;;16.51;78.26;64701.66;5050548;28;20582;-53
2023/09/13 02:38:39;;;;;;;4.45;2.97;;;;;;;16.37;77.30;64688.78;5050322;28;20260;-53
2023/09/13 02:41:04;;;;;;;5.63;2.80;;;;;;;16.28;77.99;64678.84;5032849;28;20243;-53
2023/09/13 02:43:30;;;;;;;7.57;2.97;;;;;;;16.18;79.24;64665.31;5050468;28;20243;-54
2023/09/13 02:45:55;;;;;;;6.43;3.55;;;;;;;16.21;79.39;64670.59;5050293;28;20334;-53
2023/09/13 02:48:21;;;;;;;5.03;3.22;;;;;;;16.23;79.11;64670.81;5050321;28;20262;-53
2023/09/13 02:50:46;;;;;;;4.22;2.80;;;;;;;16.39;75.04;64688.44;5032411;28;20209;-53
2023/09/13 02:53:12;;;;;;;4.40;2.80;;;;;;;16.27;74.67;64672.69;5050087;28;20209;-53
2023/09/13 02:55:37;;;;;;;4.65;3.10;;;;;;;16.25;75.21;64673.03;5050291;28;20660;-53
2023/09/13 02:58:03;;;;;;;8.52;2.92;;;;;;;16.09;75.99;64652.31;5050117;28;20217;-52
2023/09/13 03:00:29;;;;;;;5.63;2.85;;;;;;;16.12;76.02;64655.63;5050121;28;20200;-54
2023/09/13 03:02:55;;;;;;;4.70;3.15;;;;;;;16.17;75.74;64663.66;5050069;28;20235;-52
2023/09/13 03:05:22;;;;;;;8.57;2.85;;;;;;;16.02;76.27;64647.69;5049976;28;20194;-53
2023/09/13 03:07:47;;;;;;;5.30;3.05;;;;;;;16.01;76.96;64646.59;5050043;28;20212;-62
2023/09/13 03:10:12;;;;;;;5.57;3.05;;;;;;;16.05;77.20;64651.00;5050139;28;20193;-53
2023/09/13 03:12:38;;;;;;;10.60;3.13;;;;;;;16.09;77.53;64654.84;5032473;28;20595;-53
2023/09/13 03:15:05;;;;;;;6.40;3.03;;;;;;;16.01;77.64;64649.16;5050097;28;20228;-52
2023/09/13 03:17:31;;;;;;;10.75;3.45;;;;;;;16.13;76.89;64659.25;5049623;28;20244;-52
2023/09/13 03:19:56;;;;;;;4.57;2.70;;;;;;;16.16;78.12;64662.56;5050131;28;20201;-55
2023/09/13 03:22:22;;;;;;;4.10;2.72;;;;;;;16.11;77.16;64657.63;5050268;28;20630;-53
2023/09/13 03:24:47;;;;;;;5.60;2.90;;;;;;;16.25;77.25;64675.56;5050059;28;20296;-53
2023/09/13 03:27:13;;;;;;;6.80;2.95;;;;;;;16.34;76.75;64682.91;5049901;28;20750;-53
2023/09/13 03:29:38;;;;;;;5.68;3.50;;;;;;;16.34;76.68;64684.94;5049859;28;20197;-52
2023/09/13 03:32:06;;;;;;;7.30;3.20;;;;;;;16.42;76.58;64694.28;5049573;28;20225;-52
2023/09/13 03:34:32;;;;;;;5.68;3.80;;;;;;;16.29;77.45;64676.88;5032114;28;20194;-53
2023/09/13 03:36:58;;;;;;;9.55;3.28;;;;;;;16.20;78.13;64666.97;5049673;28;20225;-52
2023/09/13 03:39:28;;;;;;;5.60;3.00;;;;;;;16.20;78.20;64667.50;5049522;28;20236;-53
2023/09/13 03:41:53;;;;;;;6.30;3.55;;;;;;;16.20;76.72;64667.50;5049920;28;20205;-53
2023/09/13 03:44:19;;;;;;;5.43;3.20;;;;;;;16.18;77.44;64665.31;5049841;28;20334;-52
2023/09/13 03:46:44;;;;;;;5.60;3.25;;;;;;;16.32;77.04;64682.72;5053248;28;20216;-52
2023/09/13 03:49:09;;;;;;;6.43;3.38;;;;;;;16.32;77.70;64680.19;5053234;28;20324;-53
2023/09/13 03:51:35;;;;;;;4.68;3.08;;;;;;;16.52;77.34;64705.28;5052998;28;20679;-55
2023/09/13 03:54:00;;;;;;;7.80;4.10;;;;;;;16.37;76.88;64690.75;5053187;28;20194;-53
2023/09/13 03:56:26;;;;;;;4.88;3.28;;;;;;;16.16;78.82;64663.09;5035169;28;20644;-53
2023/09/13 03:58:54;;;;;;;7.32;4.15;;;;;;;16.01;80.40;64646.06;5053087;28;20236;-53
2023/09/13 04:01:20;;;;;;;7.85;4.10;;;;;;;16.19;78.93;64668.41;5053248;28;20213;-52
2023/09/13 04:03:45;;;;;;;11.35;4.15;;;;;;;16.13;77.68;64662.34;5053200;28;20276;-54
2023/09/13 04:06:11;;;;;;;7.20;4.10;;;;;;;15.94;77.33;64641.44;5053140;28;20734;-53
2023/09/13 04:08:37;;;;;;;5.85;3.55;;;;;;;15.77;78.93;64622.75;5052802;28;20197;-52
2023/09/13 04:11:02;;;;;;;7.28;4.35;;;;;;;15.65;79.66;64610.09;5052698;28;20603;-53
2023/09/13 04:13:28;;;;;;;5.30;3.47;;;;;;;15.67;79.57;64609.75;5053214;28;20227;-53
2023/09/13 04:15:53;;;;;;;6.72;3.50;;;;;;;15.60;81.29;64601.50;5052418;28;20217;-53
2023/09/13 04:18:19;;;;;;;14.80;3.90;;;;;;;15.89;79.96;64633.41;5052604;28;20231;-51
2023/09/13 04:20:48;;;;;;;5.95;2.90;;;;;;;15.86;77.83;64630.09;5052466;28;20216;-51
2023/09/13 04:23:14;;;;;;;5.78;3.58;;;;;;;15.68;79.25;64612.81;5052807;28;20296;-53
2023/09/13 04:25:40;;;;;;;4.82;3.05;;;;;;;15.63;79.46;64604.81;5052542;28;20243;-51
2023/09/13 04:28:06;;;;;;;6.15;2.92;;;;;;;15.61;80.99;64600.06;5052622;28;20209;-50
2023/09/13 04:30:32;;;;;;;8.32;3.78;;;;;;;15.68;79.26;64608.31;5034655;28;20280;-51
2023/09/13 04:33:02;;;;;;;4.72;3.05;;;;;;;15.65;80.39;64605.00;5052698;28;20292;-50
2023/09/13 04:35:27;;;;;;;5.82;3.60;;;;;;;15.54;79.73;64597.44;5052514;28;20273;-50
2023/09/13 04:37:53;;;;;;;6.75;3.47;;;;;;;15.53;80.48;64593.81;5052233;28;20704;-51
2023/09/13 04:40:21;;;;;;;5.28;3.35;;;;;;;15.39;81.79;64578.91;5052295;28;20656;-51
2023/09/13 04:42:54;;;;;;;4.72;3.30;;;;;;;15.33;82.92;64574.31;5052500;28;20217;-51
2023/09/13 04:45:21;;;;;;;7.20;3.60;;;;;;;15.31;83.02;64574.66;5052375;28;20256;-50
2023/09/13 04:47:47;;;;;;;5.28;2.83;;;;;;;15.21;83.90;64559.13;5034849;28;20210;-50
2023/09/13 04:50:12;;;;;;;8.15;3.38;;;;;;;15.18;84.63;64557.81;5052331;28;20280;-55
2023/09/13 04:52:38;;;;;;;6.15;3.28;;;;;;;15.14;85.52;64554.53;5052313;28;20687;-52
2023/09/13 04:55:05;;;;;;;8.63;3.78;;;;;;;15.17;85.08;64554.19;5052351;28;20240;-51
2023/09/13 04:57:30;;;;;;;6.65;3.10;;;;;;;15.17;85.58;64554.19;5050832;28;20213;-51
2023/09/13 04:59:56;;;;;;;5.55;3.25;;;;;;;15.10;86.87;64549.56;5052112;28;20571;-53
2023/09/13 05:02:21;;;;;;;12.15;3.78;;;;;;;15.14;86.76;64553.97;5051865;28;20577;-52
2023/09/13 05:04:46;;;;;;;8.20;3.80;;;;;;;15.14;86.95;64554.53;5051888;28;20201;-53
2023/09/13 05:07:12;;;;;;;6.75;3.60;;;;;;;15.30;86.98;64571.00;5051833;28;20213;-51
2023/09/13 05:09:38;;;;;;;7.03;3.13;;;;;;;15.40;86.23;64579.47;5051904;28;20284;-51
2023/09/13 05:12:04;;;;;;;4.68;3.28;;;;;;;15.55;85.31;64596.00;5051741;28;20244;-53
2023/09/13 05:14:29;;;;;;;6.85;3.65;;;;;;;15.60;85.07;64598.94;5052122;28;20197;-51
2023/09/13 05:16:55;;;;;;;5.35;3.38;;;;;;;15.62;85.02;64603.69;5051918;28;20201;-53
2023/09/13 05:19:21;;;;;;;10.93;3.83;;;;;;;15.66;85.08;64611.19;5051787;28;20412;-55
2023/09/13 05:21:47;;;;;;;8.02;3.67;;;;;;;15.77;84.51;64620.75;5051794;28;20217;-52
2023/09/13 05:24:13;;;;;;;6.47;3.30;;;;;;;15.98;83.30;64648.94;5051831;28;20209;-55
2023/09/13 05:26:38;;;;;;;11.10;3.70;;;;;;;15.94;83.28;64636.91;5052154;28;20213;-51
2023/09/13 05:29:04;;;;;;;10.10;3.65;;;;;;;15.93;83.23;64640.91;5051737;28;20615;-54
2023/09/13 05:31:31;;;;;;;7.05;3.28;;;;;;;15.99;84.16;64646.94;5051547;28;20618;-51
2023/09/13 05:33:57;;;;;;;6.68;3.50;;;;;;;16.07;83.08;64655.19;5051730;28;20732;-53
2023/09/13 05:36:23;;;;;;;8.65;4.05;;;;;;;16.11;83.57;64660.16;5051515;28;20336;-50
2023/09/13 05:38:49;;;;;;;5.07;3.63;;;;;;;16.27;83.28;64677.75;5033503;28;20205;-50
2023/09/13 05:41:18;;;;;;;5.60;3.15;;;;;;;16.29;83.36;64676.88;5051368;28;20216;-53
2023/09/13 05:43:44;;;;;;;10.05;4.13;;;;;;;16.51;82.13;64701.66;5051318;28;20695;-52
2023/09/13 05:46:10;;;;;;;6.20;3.63;;;;;;;16.50;80.16;64702.56;5051192;28;20224;-51
2023/09/13 05:48:37;;;;;;;5.50;3.63;;;;;;;16.54;79.76;64704.94;5049973;28;20202;-52
2023/09/13 05:51:03;;;;;;;5.38;3.33;;;;;;;16.47;79.96;64699.78;5033243;28;20288;-52
2023/09/13 05:53:31;;;;;;;8.07;3.53;;;;;;;16.49;80.32;64704.56;5051237;28;20201;-53
2023/09/13 05:55:57;;;;;;;6.22;3.50;;;;;;;16.46;81.16;64698.66;5051340;28;20288;-50
2023/09/13 05:58:22;;;;;;;4.70;3.10;;;;;;;16.62;80.40;64710.69;5051062;28;20754;-52
2023/09/13 06:00:50;;;;;;;4.57;3.70;;;;;;;16.75;79.34;64730.06;5051665;28;20216;-53
2023/09/13 06:03:17;;;;;;;5.57;3.45;;;;;;;16.70;79.57;64725.13;5033490;28;20623;-53
2023/09/13 06:05:43;;;;;;;7.95;3.28;;;;;;;16.68;78.87;64722.91;5051006;28;20189;-53
2023/09/13 06:08:09;;;;;;;5.97;3.20;;;;;;;16.70;78.99;64722.56;5050870;28;20212;-54
2023/09/13 06:10:35;;;;;;;6.03;3.10;;;;;;;16.81;79.97;64733.59;5051004;28;20205;-54
2023/09/13 06:13:01;;;;;;;5.53;3.50;;;;;;;17.10;77.21;64765.53;5050912;28;20209;-53
2023/09/13 06:15:27;;;;;;;5.68;3.40;;;;;;;17.08;78.09;64765.88;5050939;28;20193;-53
2023/09/13 06:17:54;;;;;;;6.32;3.42;;;;;;;17.28;77.18;64785.38;5032846;28;20221;-55
2023/09/13 06:20:20;;;;;;;5.97;3.30;;;;;;;17.28;76.99;64785.38;5050679;28;20210;-54
2023/09/13 06:22:46;;;;;;;11.30;3.83;;;;;;;17.35;76.47;64793.09;5050752;28;20206;-55
2023/09/13 06:25:11;;;;;;;4.45;3.50;;;;;;;17.60;75.39;64823.75;5049455;28;20229;-55
2023/09/13 06:27:37;;;;;;;5.63;3.47;;;;;;;17.70;74.17;64831.13;5032639;28;20217;-55
2023/09/13 06:30:02;;;;;;;8.43;3.95;;;;;;;17.77;74.06;64836.84;5050717;28;20252;-54
2023/09/13 06:32:28;;;;;;;8.90;3.65;;;;;;;17.85;72.51;64848.22;5050619;28;20220;-54
2023/09/13 06:34:58;;;;;;;7.18;4.10;;;;;;;18.08;71.52;64873.03;5050533;28;20284;-54
2023/09/13 06:37:28;;;;;;;12.88;4.13;;;;;;;18.22;70.46;64889.00;5051124;28;20233;-55
2023/09/13 06:39:54;;;;;;;9.18;3.83;;;;;;;18.20;70.60;64884.25;5050467;28;20201;-54
2023/09/13 06:42:20;;;;;;;5.43;3.30;;;;;;;18.31;70.21;64898.94;5032691;28;20717;-55
2023/09/13 06:44:46;;;;;;;5.65;3.72;;;;;;;18.43;70.45;64914.19;5050545;28;20292;-54
2023/09/13 06:47:12;;;;;;;9.50;3.53;;;;;;;18.54;69.24;64923.22;5032481;28;20223;-55
2023/09/13 06:49:37;;;;;;;10.32;5.25;;;;;;;18.53;69.39;64924.66;5049116;28;20201;-55
2023/09/13 06:52:03;;;;;;;8.70;3.70;;;;;;;18.71;68.75;64941.97;5032600;28;20727;-54
2023/09/13 06:54:30;;;;;;;10.27;3.97;;;;;;;18.92;66.76;64962.59;5050254;28;20193;-54
2023/09/13 06:56:56;;;;;;;5.72;3.78;;;;;;;18.88;66.60;64958.19;5032681;28;20667;-57
2023/09/13 06:59:22;;;;;;;9.18;4.45;;;;;;;18.93;67.31;64966.25;5032299;28;20244;-53
2023/09/13 07:01:47;;;;;;;20.50;8.82;;;;;;;19.18;66.81;64994.41;5032287;28;20660;-55
2023/09/13 07:04:13;;;;;;;9.13;4.18;;;;;;;19.38;66.33;65015.94;5050231;28;20189;-54
2023/09/13 07:06:41;;;;;;;9.50;4.22;;;;;;;19.51;66.06;65027.19;5032427;28;20233;-54
2023/09/13 07:09:07;;;;;;;9.52;4.63;;;;;;;19.80;62.56;65062.31;5050138;28;20676;-55
2023/09/13 07:11:33;;;;;;;10.73;4.65;;;;;;;19.85;61.48;65065.28;5050075;28;20239;-54
2023/09/13 07:14:02;;;;;;;6.20;4.43;;;;;;;19.71;62.63;65049.81;5050044;28;20225;-55
2023/09/13 07:16:29;;;;;;;9.65;4.93;;;;;;;20.05;62.65;65086.81;5032110;28;20209;-54
2023/09/13 07:18:55;;;;;;;12.57;4.35;;;;;;;20.24;62.35;65104.72;5050535;28;20209;-54
2023/09/13 07:21:21;;;;;;;8.90;4.57;;;;;;;20.45;59.82;65133.03;5053289;28;20687;-54
2023/09/13 07:23:46;;;;;;;8.20;4.60;;;;;;;20.65;60.01;65152.56;5053782;28;20185;-54
2023/09/13 07:26:12;;;;;;;10.45;4.95;;;;;;;20.66;59.13;65156.81;5053649;28;20262;-53
2023/09/13 07:28:37;;;;;;;10.93;4.43;;;;;;;20.63;58.10;65150.91;5053678;28;20213;-55
2023/09/13 07:31:10;;;;;;;10.35;4.88;;;;;;;20.92;58.11;65180.44;5053734;28;20687;-55
2023/09/13 07:33:35;;;;;;;5.78;3.85;;;;;;;21.10;57.87;65204.34;5053592;28;20188;-56
2023/09/13 07:36:08;;;;;;;6.65;4.13;;;;;;;21.41;57.09;65236.63;5053294;28;20225;-54
2023/09/13 07:38:34;;;;;;;11.75;4.53;;;;;;;21.54;57.85;65251.00;5053418;28;20232;-57
2023/09/13 07:41:07;;;;;;;12.82;4.80;;;;;;;21.37;57.82;65234.22;5053709;28;20201;-56
2023/09/13 07:43:32;;;;;;;9.98;5.15;;;;;;;21.46;56.86;65242.16;5035449;28;20347;-54
2023/09/13 07:45:57;;;;;;;10.10;4.15;;;;;;;21.49;56.60;65248.03;5053140;28;20676;-54
2023/09/13 07:48:25;;;;;;;9.70;5.47;;;;;;;21.96;55.45;65296.41;5080490;22;20231;-59
2023/09/13 07:50:51;;;;;;;11.43;5.05;;;;;;;22.03;54.31;65304.13;5073013;28;20204;-55
2023/09/13 07:53:16;;;;;;;11.95;5.13;;;;;;;22.30;53.18;65336.59;5053607;28;20182;-63
2023/09/13 07:55:42;;;;;;;9.63;4.75;;;;;;;22.36;52.74;65343.78;5053165;28;20686;-56
2023/09/13 07:58:08;;;;;;;11.15;5.15;;;;;;;21.90;53.27;65290.31;5053070;28;20209;-56
2023/09/13 08:00:34;;;;;;;9.02;5.25;;;;;;;21.94;52.81;65294.72;5053105;28;20201;-55
2023/09/13 08:03:01;;;;;;;11.82;5.25;;;;;;;22.00;52.35;65300.81;5053088;28;20293;-55
2023/09/13 08:05:27;;;;;;;9.70;4.82;;;;;;;21.99;51.80;65299.72;5052927;28;20255;-55
2023/09/13 08:07:53;;;;;;;7.05;4.28;;;;;;;22.32;52.26;65336.78;5052777;28;20202;-55
2023/09/13 08:10:21;;;;;;;12.43;4.47;;;;;;;22.58;51.92;65367.63;5052867;28;20193;-54
2023/09/13 08:12:48;;;;;;;10.98;4.53;;;;;;;22.82;51.37;65388.50;5052587;28;20236;-55
2023/09/13 08:15:14;;;;;;;6.75;3.83;;;;;;;23.19;50.72;65432.06;5052759;28;20220;-58
2023/09/13 08:17:39;;;;;;;9.65;4.65;;;;;;;22.96;49.88;65404.56;5051383;28;20271;-54
2023/09/13 08:20:10;;;;;;;11.13;4.25;;;;;;;22.89;50.11;65399.38;5052517;28;20213;-56
2023/09/13 08:22:36;;;;;;;11.52;4.95;;;;;;;23.39;49.61;65453.66;5052713;28;20198;-57
2023/09/13 08:25:03;;;;;;;8.30;4.38;;;;;;;23.34;47.59;65449.25;5034882;28;20664;-60
2023/09/13 08:27:29;;;;;;;10.45;4.80;;;;;;;23.66;47.48;65483.56;5052634;28;20292;-55
2023/09/13 08:29:55;;;;;;;11.02;3.83;;;;;;;23.70;47.53;65488.00;5052640;28;20233;-59
2023/09/13 08:32:22;;;;;;;8.57;3.55;;;;;;;23.61;46.26;65480.63;5052467;28;20237;-55
2023/09/13 08:34:47;;;;;;;9.25;3.65;;;;;;;23.80;45.95;65499.09;5052611;28;20231;-55
2023/09/13 08:37:13;;;;;;;6.68;3.70;;;;;;;24.34;44.88;65558.44;5052262;28;20210;-58
2023/09/13 08:39:39;;;;;;;8.63;4.00;;;;;;;24.09;44.87;65531.28;5052456;28;20231;-60
2023/09/13 08:42:05;;;;;;;10.55;4.55;;;;;;;24.26;44.26;65549.56;5052242;28;20217;-60
2023/09/13 08:44:33;;;;;;;8.52;4.90;;;;;;;24.59;44.16;65586.72;5052394;28;20732;-54
2023/09/13 08:47:02;;;;;;;8.85;4.00;;;;;;;24.63;42.89;65591.16;5052161;28;20734;-53
2023/09/13 08:49:30;;;;;;;4.93;3.50;;;;;;;24.89;42.92;65619.47;5050916;28;20321;-52
2023/09/13 08:51:57;;;;;;;9.43;3.17;;;;;;;25.29;40.90;65663.84;5052157;28;20218;-55
2023/09/13 08:54:25;;;;;;;7.15;3.78;;;;;;;25.56;41.11;65693.28;5052270;28;20208;-54
2023/09/13 08:56:52;;;;;;;6.93;3.35;;;;;;;25.48;40.69;65681.81;5052063;28;20205;-54
2023/09/13 08:59:18;;;;;;;7.00;3.47;;;;;;;25.96;40.23;65739.72;5052202;28;20244;-55
2023/09/13 09:01:50;;;;;;;10.30;3.53;;;;;;;26.48;40.55;65795.47;5052034;28;20275;-54
2023/09/13 09:04:19;;;;;;;7.55;3.70;;;;;;;26.51;39.28;65798.25;5052035;28;20258;-55
2023/09/13 09:06:46;;;;;;;6.70;3.08;;;;;;;27.16;38.46;65869.97;5051869;28;20215;-55
2023/09/13 09:09:13;;;;;;;7.63;3.38;;;;;;;27.18;37.73;65872.19;5051957;28;20263;-54
2023/09/13 09:11:42;;;;;;;7.28;3.60;;;;;;;26.97;38.08;65846.25;5051940;28;20205;-53
2023/09/13 09:14:10;;;;;;;8.25;3.70;;;;;;;27.30;37.25;65885.53;5051912;28;20277;-54
2023/09/13 09:16:38;;;;;;;5.82;3.00;;;;;;;27.74;35.40;65931.88;5051879;28;20225;-55
2023/09/13 09:19:05;;;;;;;9.48;3.22;;;;;;;28.21;36.28;65986.78;5051674;28;20640;-56
2023/09/13 09:21:32;;;;;;;8.48;3.92;;;;;;;28.68;36.71;66035.41;5051804;28;20209;-54
2023/09/13 09:23:58;;;;;;;7.75;3.15;;;;;;;29.04;36.36;66076.03;5051963;28;20233;-54
2023/09/13 09:26:24;;;;;;;5.15;3.33;;;;;;;29.16;34.25;66088.28;5033631;28;20714;-56
2023/09/13 09:28:51;;;;;;;6.13;3.20;;;;;;;29.15;34.51;66090.31;5051632;28;20283;-59
2023/09/13 09:31:17;;;;;;;5.05;3.33;;;;;;;29.25;34.00;66101.47;5051511;28;20263;-55
2023/09/13 09:33:43;;;;;;;6.32;3.30;;;;;;;29.22;34.52;66097.56;5033802;28;20216;-54
2023/09/13 09:36:13;;;;;;;11.68;4.35;;;;;;;28.64;35.15;66033.53;5051562;28;20201;-54
2023/09/13 09:38:43;;;;;;;9.82;4.18;;;;;;;28.19;36.06;65984.56;5051624;28;20324;-53
2023/09/13 09:41:09;;;;;;;7.63;3.83;;;;;;;28.13;35.27;65977.88;5051349;28;20209;-53
2023/09/13 09:43:36;;;;;;;5.00;3.50;;;;;;;28.58;34.51;66024.84;5050912;28;20174;-55
2023/09/13 09:46:01;;;;;;;5.05;3.55;;;;;;;29.45;34.00;66121.13;5051377;28;20656;-54
2023/09/13 09:48:27;;;;;;;8.98;3.53;;;;;;;29.84;34.56;66167.22;5051453;28;20201;-53
2023/09/13 09:50:54;;;;;;;7.45;3.40;;;;;;;30.03;33.71;66187.28;5051251;28;20209;-53
2023/09/13 09:53:24;;;;;;;7.30;3.63;;;;;;;29.25;33.94;66101.47;5051430;28;20205;-54
2023/09/13 09:55:51;;;;;;;6.53;3.58;;;;;;;30.08;32.63;66192.84;5051209;28;20241;-54
2023/09/13 09:58:17;;;;;;;13.30;3.72;;;;;;;29.93;32.10;66170.94;5051219;28;20260;-54
2023/09/13 10:00:52;;;;;;;7.38;3.25;;;;;;;29.45;32.72;66123.75;5051072;28;20213;-54
2023/09/13 10:03:28;;;;;;;6.15;3.45;;;;;;;29.55;31.95;66132.28;5033406;28;20705;-53
2023/09/13 10:06:11;;;;;;;8.15;3.20;;;;;;;30.04;31.74;66185.78;5033058;28;20691;-54
2023/09/13 10:08:45;;;;;;;5.47;3.45;;;;;;;31.01;31.04;66296.56;5051002;28;20227;-54
2023/09/13 10:11:19;;;;;;;5.30;3.13;;;;;;;31.17;29.89;66309.19;5050968;28;20201;-54
2023/09/13 10:13:46;;;;;;;5.07;3.40;;;;;;;31.11;29.30;66304.56;5051070;28;20196;-54
2023/09/13 10:16:13;;;;;;;6.60;3.28;;;;;;;31.68;30.22;66370.75;5050952;28;20274;-54
2023/09/13 10:18:50;;;;;;;8.77;3.35;;;;;;;31.97;30.61;66397.94;5050974;28;20235;-54
2023/09/13 10:21:30;;;;;;;6.82;3.53;;;;;;;32.23;29.01;66429.00;5050786;28;20216;-54
2023/09/13 10:24:07;;;;;;;4.15;3.10;;;;;;;32.41;28.69;66451.16;5050565;28;20197;-55
2023/09/13 10:26:34;;;;;;;7.72;4.28;;;;;;;32.53;28.91;66462.53;5062964;22;20224;-54
2023/09/13 10:29:24;;;;;;;5.85;3.50;;;;;;;32.62;28.67;66472.59;5070835;28;20200;-53
2023/09/13 10:31:55;;;;;;;5.97;3.10;;;;;;;32.05;28.30;66408.91;5024156;28;20696;-54
2023/09/13 10:34:27;;;;;;;4.68;3.22;;;;;;;32.19;28.40;66422.50;5050555;28;20197;-55
2023/09/13 10:37:17;;;;;;;9.35;3.15;;;;;;;32.45;28.08;66453.00;5050406;28;20216;-53
2023/09/13 10:39:51;;;;;;;5.93;3.20;;;;;;;32.78;27.80;66493.06;5050629;28;20214;-54
2023/09/13 10:42:18;;;;;;;6.30;3.10;;;;;;;32.83;27.50;66493.41;5050465;28;20322;-54
2023/09/13 10:44:45;;;;;;;7.20;4.25;;;;;;;32.25;27.99;66431.25;5050764;28;20219;-53
2023/09/13 10:47:12;;;;;;;5.03;3.38;;;;;;;31.76;29.02;66373.91;5050548;28;20209;-54
2023/09/13 10:49:40;;;;;;;5.28;3.40;;;;;;;32.55;27.98;66464.75;5050356;28;20680;-55
2023/09/13 10:52:06;;;;;;;8.88;3.40;;;;;;;32.92;28.58;66508.69;5050225;28;20746;-56
2023/09/13 10:54:32;;;;;;;5.85;3.35;;;;;;;33.30;29.15;66547.44;5031481;28;20687;-53
2023/09/13 10:56:58;;;;;;;6.68;3.88;;;;;;;33.52;27.60;66569.97;5050397;28;20216;-54
2023/09/13 10:59:27;;;;;;;7.00;4.13;;;;;;;33.95;27.72;66617.47;5050403;28;20554;-55
2023/09/13 11:01:53;;;;;;;9.40;3.83;;;;;;;33.64;26.69;66586.00;5050244;28;20225;-53
2023/09/13 11:04:23;;;;;;;8.40;3.97;;;;;;;33.63;28.58;66584.31;5050348;28;20208;-54
2023/09/13 11:06:50;;;;;;;8.32;3.38;;;;;;;33.66;28.33;66585.06;5032516;28;20364;-55
2023/09/13 11:09:18;;;;;;;7.97;3.38;;;;;;;33.01;28.30;66518.19;5050337;28;20250;-54
2023/09/13 11:11:48;;;;;;;11.60;3.60;;;;;;;33.53;27.09;66573.72;5050238;28;20212;-54
2023/09/13 11:14:19;;;;;;;8.43;3.50;;;;;;;33.98;26.58;66620.81;5032418;28;20209;-54
2023/09/13 11:16:48;;;;;;;5.78;4.07;;;;;;;34.15;27.07;66642.47;5050323;28;20229;-53
2023/09/13 11:19:17;;;;;;;8.60;3.65;;;;;;;33.86;26.64;66610.03;5050442;28;20225;-54
2023/09/13 11:21:50;;;;;;;9.52;3.60;;;;;;;33.81;26.50;66605.00;5032206;28;20240;-54
2023/09/13 11:24:39;;;;;;;9.73;3.83;;;;;;;33.94;27.07;66616.34;5050416;28;20204;-53
2023/09/13 11:27:18;;;;;;;7.18;2.90;;;;;;;32.95;27.38;66506.81;5049860;28;20224;-54
2023/09/13 11:29:46;;;;;;;6.82;3.30;;;;;;;32.98;26.99;66512.81;5050732;28;20221;-54
2023/09/13 11:32:25;;;;;;;7.43;3.55;;;;;;;32.90;27.67;66503.28;5050072;28;20205;-53
2023/09/13 11:34:59;;;;;;;5.47;3.58;;;;;;;33.47;26.61;66566.97;5050107;28;20201;-53